createdAt,value
2022-07-26T00:00:15.047Z,996.89
2022-07-26T00:01:13.202Z,996.92
2022-07-26T00:02:16.639Z,996.92
2022-07-26T00:03:13.553Z,996.93
2022-07-26T00:04:13.521Z,996.89
2022-07-26T00:05:13.755Z,996.91
2022-07-26T00:06:14.054Z,996.93
2022-07-26T00:07:13.296Z,996.92
2022-07-26T00:08:13.334Z,996.91
2022-07-26T00:09:13.301Z,996.92
2022-07-26T00:10:15.027Z,996.88
2022-07-26T00:11:13.115Z,996.89
2022-07-26T00:12:12.959Z,996.88
2022-07-26T00:13:13.311Z,996.90
2022-07-26T00:14:13.556Z,996.84
2022-07-26T00:15:13.492Z,996.85
2022-07-26T00:16:13.839Z,996.86
2022-07-26T00:17:13.372Z,996.88
2022-07-26T00:18:13.810Z,996.84
2022-07-26T00:19:14.163Z,996.83
2022-07-26T00:20:13.257Z,996.83
2022-07-26T00:21:13.588Z,996.85
2022-07-26T00:22:13.811Z,996.83
2022-07-26T00:23:13.707Z,996.82
2022-07-26T00:24:13.694Z,996.82
2022-07-26T00:25:13.727Z,996.82
2022-07-26T00:26:13.909Z,996.82
2022-07-26T00:27:12.808Z,996.84
2022-07-26T00:28:14.120Z,996.81
2022-07-26T00:29:13.228Z,996.83
2022-07-26T00:30:13.120Z,996.79
2022-07-26T00:31:18.892Z,996.80
2022-07-26T00:32:13.133Z,996.80
2022-07-26T00:33:13.223Z,996.76
2022-07-26T00:34:13.618Z,996.80
2022-07-26T00:35:13.660Z,996.78
2022-07-26T00:36:13.575Z,996.78
2022-07-26T00:37:19.783Z,996.79
2022-07-26T00:38:13.277Z,996.78
2022-07-26T00:39:13.214Z,996.82
2022-07-26T00:40:13.413Z,996.82
2022-07-26T00:41:13.554Z,996.85
2022-07-26T00:42:13.906Z,996.85
2022-07-26T00:43:12.837Z,996.87
2022-07-26T00:44:14.101Z,996.85
2022-07-26T00:45:13.022Z,996.88
2022-07-26T00:46:13.144Z,996.89
2022-07-26T00:47:13.220Z,996.87
2022-07-26T00:48:13.649Z,996.91
2022-07-26T00:49:14.136Z,996.85
2022-07-26T00:50:13.068Z,996.89
2022-07-26T00:51:13.247Z,996.85
2022-07-26T00:52:13.394Z,996.90
2022-07-26T00:53:13.680Z,996.90
2022-07-26T00:54:14.247Z,996.87
2022-07-26T00:55:13.377Z,996.87
2022-07-26T00:56:14.125Z,996.88
2022-07-26T00:57:13.169Z,996.90
2022-07-26T00:58:13.159Z,996.87
2022-07-26T00:59:13.490Z,996.88
2022-07-26T01:00:13.804Z,996.89
2022-07-26T01:01:14.155Z,996.87
2022-07-26T01:02:13.318Z,996.91
2022-07-26T01:03:13.728Z,996.91
2022-07-26T01:04:14.180Z,996.90
2022-07-26T01:05:13.480Z,996.92
2022-07-26T01:06:13.824Z,996.88
2022-07-26T01:07:14.763Z,996.87
2022-07-26T01:08:13.719Z,996.91
2022-07-26T01:09:13.896Z,996.87
2022-07-26T01:10:14.179Z,996.90
2022-07-26T01:11:13.695Z,996.87
2022-07-26T01:12:13.722Z,996.93
2022-07-26T01:13:13.901Z,996.91
2022-07-26T01:14:13.101Z,996.88
2022-07-26T01:15:13.063Z,996.92
2022-07-26T01:16:12.990Z,996.89
2022-07-26T01:17:13.100Z,996.94
2022-07-26T01:18:13.177Z,996.91
2022-07-26T01:19:13.163Z,996.91
2022-07-26T01:20:13.306Z,996.91
2022-07-26T01:21:14.246Z,996.90
2022-07-26T01:22:14.833Z,996.87
2022-07-26T01:23:13.397Z,996.88
2022-07-26T01:24:13.594Z,996.85
2022-07-26T01:25:14.908Z,996.87
2022-07-26T01:26:12.736Z,996.84
2022-07-26T01:27:13.427Z,996.86
2022-07-26T01:28:20.120Z,996.82
2022-07-26T01:29:13.803Z,996.83
2022-07-26T01:30:13.976Z,996.79
2022-07-26T01:31:13.010Z,996.83
2022-07-26T01:32:13.318Z,996.78
2022-07-26T01:33:13.649Z,996.77
2022-07-26T01:34:13.580Z,996.78
2022-07-26T01:35:13.720Z,996.77
2022-07-26T01:36:13.817Z,996.79
2022-07-26T01:37:13.811Z,996.77
2022-07-26T01:38:14.014Z,996.79
2022-07-26T01:39:12.971Z,996.80
2022-07-26T01:40:12.895Z,996.81
2022-07-26T01:41:12.924Z,996.82
2022-07-26T01:42:13.140Z,996.86
2022-07-26T01:43:13.443Z,996.83
2022-07-26T01:44:13.792Z,996.85
2022-07-26T01:45:13.774Z,996.86
2022-07-26T01:46:13.850Z,996.86
2022-07-26T01:47:12.874Z,996.85
2022-07-26T01:48:15.179Z,996.84
2022-07-26T01:49:13.370Z,996.87
2022-07-26T01:50:13.556Z,996.84
2022-07-26T01:51:13.661Z,996.84
2022-07-26T01:52:14.425Z,996.85
2022-07-26T01:53:14.200Z,996.87
2022-07-26T01:54:13.289Z,996.85
2022-07-26T01:55:13.585Z,996.88
2022-07-26T01:56:13.736Z,996.88
2022-07-26T01:57:14.184Z,996.89
2022-07-26T01:58:13.165Z,996.93
2022-07-26T01:59:13.625Z,996.90
2022-07-26T02:00:14.016Z,996.90
2022-07-26T02:01:13.055Z,996.90
2022-07-26T02:02:13.219Z,996.90
2022-07-26T02:03:13.678Z,996.90
2022-07-26T02:04:13.797Z,996.90
2022-07-26T02:05:13.804Z,996.90
2022-07-26T02:06:14.113Z,996.96
2022-07-26T02:07:13.536Z,996.95
2022-07-26T02:08:13.903Z,996.95
2022-07-26T02:09:13.171Z,996.97
2022-07-26T02:10:13.270Z,996.95
2022-07-26T02:11:13.666Z,996.95
2022-07-26T02:12:13.911Z,996.96
2022-07-26T02:13:19.145Z,996.99
2022-07-26T02:14:13.039Z,996.96
2022-07-26T02:15:13.323Z,996.96
2022-07-26T02:16:13.396Z,996.97
2022-07-26T02:17:13.702Z,996.97
2022-07-26T02:18:14.553Z,996.98
2022-07-26T02:19:13.888Z,996.98
2022-07-26T02:20:12.840Z,997.03
2022-07-26T02:21:13.868Z,996.98
2022-07-26T02:22:13.909Z,997.00
2022-07-26T02:23:13.064Z,997.00
2022-07-26T02:24:13.502Z,997.03
2022-07-26T02:25:13.594Z,997.01
2022-07-26T02:26:13.564Z,996.99
2022-07-26T02:27:13.540Z,997.04
2022-07-26T02:28:13.475Z,997.00
2022-07-26T02:29:13.429Z,997.00
2022-07-26T02:30:13.316Z,997.00
2022-07-26T02:31:15.424Z,997.01
2022-07-26T02:32:13.746Z,997.03
2022-07-26T02:33:14.047Z,997.06
2022-07-26T02:34:13.333Z,997.02
2022-07-26T02:35:13.627Z,997.00
2022-07-26T02:36:13.994Z,996.97
2022-07-26T02:37:12.816Z,996.99
2022-07-26T02:38:13.894Z,997.01
2022-07-26T02:39:13.154Z,997.03
2022-07-26T02:40:18.532Z,997.03
2022-07-26T02:41:13.426Z,997.01
2022-07-26T02:42:13.415Z,997.01
2022-07-26T02:43:13.435Z,996.99
2022-07-26T02:44:13.273Z,996.97
2022-07-26T02:45:13.298Z,997.03
2022-07-26T02:46:13.460Z,997.01
2022-07-26T02:47:13.998Z,997.05
2022-07-26T02:48:13.054Z,996.98
2022-07-26T02:49:13.865Z,997.02
2022-07-26T02:50:12.830Z,997.01
2022-07-26T02:51:13.743Z,997.00
2022-07-26T02:52:13.870Z,997.03
2022-07-26T02:53:13.843Z,997.01
2022-07-26T02:54:13.913Z,997.03
2022-07-26T02:55:13.098Z,997.04
2022-07-26T02:56:13.042Z,997.06
2022-07-26T02:57:13.580Z,997.01
2022-07-26T02:58:13.755Z,997.04
2022-07-26T02:59:13.622Z,997.03
2022-07-26T03:00:13.885Z,997.05
2022-07-26T03:01:13.231Z,996.99
2022-07-26T03:02:14.140Z,997.03
2022-07-26T03:03:13.365Z,997.04
2022-07-26T03:04:13.417Z,997.05
2022-07-26T03:05:13.597Z,997.06
2022-07-26T03:06:13.585Z,997.06
2022-07-26T03:07:14.077Z,997.03
2022-07-26T03:08:13.094Z,997.06
2022-07-26T03:09:13.224Z,997.05
2022-07-26T03:10:13.132Z,997.05
2022-07-26T03:11:13.200Z,997.09
2022-07-26T03:12:13.500Z,997.11
2022-07-26T03:13:18.711Z,997.12
2022-07-26T03:14:13.742Z,997.10
2022-07-26T03:15:15.206Z,997.10
2022-07-26T03:16:13.470Z,997.13
2022-07-26T03:17:13.534Z,997.16
2022-07-26T03:18:13.541Z,997.17
2022-07-26T03:19:13.753Z,997.13
2022-07-26T03:20:13.831Z,997.17
2022-07-26T03:21:13.869Z,997.13
2022-07-26T03:22:13.846Z,997.15
2022-07-26T03:23:13.762Z,997.21
2022-07-26T03:24:13.803Z,997.20
2022-07-26T03:25:13.792Z,997.12
2022-07-26T03:26:14.226Z,997.11
2022-07-26T03:27:13.237Z,997.18
2022-07-26T03:28:17.466Z,997.22
2022-07-26T03:29:13.242Z,997.16
2022-07-26T03:30:13.311Z,997.19
2022-07-26T03:31:13.441Z,997.15
2022-07-26T03:32:13.707Z,997.23
2022-07-26T03:33:13.795Z,997.20
2022-07-26T03:34:14.007Z,997.21
2022-07-26T03:35:13.174Z,997.26
2022-07-26T03:36:15.777Z,997.25
2022-07-26T03:37:13.465Z,997.28
2022-07-26T03:38:13.446Z,997.28
2022-07-26T03:39:13.473Z,997.23
2022-07-26T03:40:13.377Z,997.26
2022-07-26T03:41:13.607Z,997.29
2022-07-26T03:42:12.894Z,997.28
2022-07-26T03:43:13.219Z,997.32
2022-07-26T03:44:13.514Z,997.34
2022-07-26T03:45:13.479Z,997.33
2022-07-26T03:46:13.966Z,997.33
2022-07-26T03:47:13.580Z,997.34
2022-07-26T03:48:13.530Z,997.33
2022-07-26T03:49:17.014Z,997.33
2022-07-26T03:50:13.941Z,997.35
2022-07-26T03:51:13.034Z,997.35
2022-07-26T03:52:12.976Z,997.37
2022-07-26T03:53:13.459Z,997.38
2022-07-26T03:54:13.602Z,997.34
2022-07-26T03:55:13.953Z,997.38
2022-07-26T03:56:12.943Z,997.39
2022-07-26T03:57:13.792Z,997.38
2022-07-26T03:58:14.215Z,997.35
2022-07-26T03:59:13.225Z,997.39
2022-07-26T04:00:13.377Z,997.38
2022-07-26T04:01:13.428Z,997.41
2022-07-26T04:02:13.585Z,997.38
2022-07-26T04:03:13.712Z,997.43
2022-07-26T04:04:14.244Z,997.43
2022-07-26T04:05:13.535Z,997.40
2022-07-26T04:06:13.561Z,997.46
2022-07-26T04:07:13.553Z,997.44
2022-07-26T04:08:12.993Z,997.47
2022-07-26T04:09:13.053Z,997.47
2022-07-26T04:10:12.974Z,997.45
2022-07-26T04:11:13.061Z,997.47
2022-07-26T04:12:13.438Z,997.48
2022-07-26T04:13:13.873Z,997.51
2022-07-26T04:14:13.814Z,997.52
2022-07-26T04:15:14.128Z,997.54
2022-07-26T04:16:13.514Z,997.54
2022-07-26T04:17:13.690Z,997.57
2022-07-26T04:18:14.000Z,997.58
2022-07-26T04:19:13.037Z,997.58
2022-07-26T04:20:13.080Z,997.58
2022-07-26T04:21:13.024Z,997.63
2022-07-26T04:22:12.907Z,997.67
2022-07-26T04:23:13.119Z,997.70
2022-07-26T04:24:13.399Z,997.68
2022-07-26T04:25:13.313Z,997.69
2022-07-26T04:26:13.486Z,997.69
2022-07-26T04:27:13.799Z,997.66
2022-07-26T04:28:14.070Z,997.68
2022-07-26T04:29:13.488Z,997.76
2022-07-26T04:30:15.382Z,997.75
2022-07-26T04:31:14.199Z,997.78
2022-07-26T04:32:13.845Z,997.77
2022-07-26T04:33:13.978Z,997.82
2022-07-26T04:34:13.036Z,997.79
2022-07-26T04:35:12.993Z,997.81
2022-07-26T04:36:12.844Z,997.83
2022-07-26T04:37:14.001Z,997.80
2022-07-26T04:38:12.829Z,997.81
2022-07-26T04:39:13.941Z,997.80
2022-07-26T04:40:12.943Z,997.83
2022-07-26T04:41:13.372Z,997.83
2022-07-26T04:42:13.385Z,997.84
2022-07-26T04:43:18.653Z,997.86
2022-07-26T04:44:13.809Z,997.84
2022-07-26T04:45:13.812Z,997.84
2022-07-26T04:46:13.808Z,997.80
2022-07-26T04:47:13.747Z,997.83
2022-07-26T04:48:13.189Z,997.82
2022-07-26T04:49:13.288Z,997.84
2022-07-26T04:50:13.655Z,997.82
2022-07-26T04:51:13.566Z,997.86
2022-07-26T04:52:13.494Z,997.81
2022-07-26T04:53:13.467Z,997.82
2022-07-26T04:54:13.476Z,997.81
2022-07-26T04:55:13.589Z,997.82
2022-07-26T04:56:13.669Z,997.78
2022-07-26T04:57:13.676Z,997.80
2022-07-26T04:58:13.809Z,997.84
2022-07-26T04:59:16.198Z,997.81
2022-07-26T05:00:22.511Z,997.83
2022-07-26T05:01:13.570Z,997.82
2022-07-26T05:02:14.599Z,997.77
2022-07-26T05:03:13.946Z,997.78
2022-07-26T05:04:13.271Z,997.78
2022-07-26T05:05:13.171Z,997.77
2022-07-26T05:06:13.621Z,997.77
2022-07-26T05:07:13.554Z,997.77
2022-07-26T05:08:13.508Z,997.76
2022-07-26T05:09:13.577Z,997.73
2022-07-26T05:10:13.761Z,997.75
2022-07-26T05:11:13.931Z,997.74
2022-07-26T05:12:13.099Z,997.77
2022-07-26T05:13:13.170Z,997.72
2022-07-26T05:14:13.714Z,997.76
2022-07-26T05:15:14.345Z,997.72
2022-07-26T05:16:13.517Z,997.76
2022-07-26T05:17:13.576Z,997.74
2022-07-26T05:18:13.587Z,997.76
2022-07-26T05:19:13.714Z,997.75
2022-07-26T05:20:14.054Z,997.75
2022-07-26T05:21:13.133Z,997.76
2022-07-26T05:22:14.572Z,997.70
2022-07-26T05:23:13.501Z,997.74
2022-07-26T05:24:13.753Z,997.73
2022-07-26T05:25:13.674Z,997.79
2022-07-26T05:26:13.828Z,997.78
2022-07-26T05:27:13.917Z,997.80
2022-07-26T05:28:12.926Z,997.83
2022-07-26T05:29:12.929Z,997.85
2022-07-26T05:30:12.919Z,997.87
2022-07-26T05:31:13.374Z,997.86
2022-07-26T05:32:13.633Z,997.87
2022-07-26T05:33:16.434Z,997.88
2022-07-26T05:34:14.046Z,997.88
2022-07-26T05:35:13.296Z,997.90
2022-07-26T05:36:13.331Z,997.92
2022-07-26T05:37:13.246Z,997.93
2022-07-26T05:38:13.779Z,997.92
2022-07-26T05:39:16.066Z,997.95
2022-07-26T05:40:13.587Z,997.97
2022-07-26T05:41:13.499Z,997.95
2022-07-26T05:42:13.487Z,997.99
2022-07-26T05:43:13.864Z,997.96
2022-07-26T05:44:14.114Z,997.94
2022-07-26T05:45:13.401Z,997.92
2022-07-26T05:46:13.639Z,997.97
2022-07-26T05:47:14.854Z,997.95
2022-07-26T05:48:13.685Z,997.95
2022-07-26T05:49:13.869Z,997.97
2022-07-26T05:50:13.299Z,997.97
2022-07-26T05:51:13.510Z,997.99
2022-07-26T05:52:15.032Z,997.99
2022-07-26T05:53:13.120Z,998.00
2022-07-26T05:54:13.238Z,997.96
2022-07-26T05:55:13.299Z,997.97
2022-07-26T05:56:13.333Z,997.96
2022-07-26T05:57:13.261Z,997.96
2022-07-26T05:58:13.299Z,997.98
2022-07-26T05:59:13.309Z,998.00
2022-07-26T06:00:13.337Z,998.01
2022-07-26T06:01:13.444Z,997.98
2022-07-26T06:02:13.641Z,997.98
2022-07-26T06:03:13.831Z,997.97
2022-07-26T06:04:14.099Z,998.01
2022-07-26T06:05:13.091Z,998.02
2022-07-26T06:06:13.053Z,998.01
2022-07-26T06:07:13.111Z,998.01
2022-07-26T06:08:13.198Z,998.02
2022-07-26T06:09:13.220Z,997.99
2022-07-26T06:10:13.421Z,998.02
2022-07-26T06:11:13.380Z,998.01
2022-07-26T06:12:13.459Z,998.04
2022-07-26T06:13:13.487Z,998.03
2022-07-26T06:14:14.014Z,998.05
2022-07-26T06:15:15.415Z,998.05
2022-07-26T06:16:13.123Z,998.06
2022-07-26T06:17:14.843Z,998.03
2022-07-26T06:18:14.152Z,998.03
2022-07-26T06:19:13.505Z,998.04
2022-07-26T06:20:13.597Z,998.09
2022-07-26T06:21:13.825Z,998.10
2022-07-26T06:22:13.841Z,998.09
2022-07-26T06:23:12.875Z,998.12
2022-07-26T06:24:14.239Z,998.14
2022-07-26T06:25:13.563Z,998.09
2022-07-26T06:26:13.744Z,998.10
2022-07-26T06:27:13.916Z,998.05
2022-07-26T06:28:13.355Z,998.11
2022-07-26T06:29:13.605Z,998.11
2022-07-26T06:30:13.863Z,998.15
2022-07-26T06:31:14.063Z,998.12
2022-07-26T06:32:13.301Z,998.11
2022-07-26T06:33:13.301Z,998.11
2022-07-26T06:34:13.234Z,998.09
2022-07-26T06:35:13.494Z,998.06
2022-07-26T06:36:13.758Z,998.12
2022-07-26T06:37:14.151Z,998.12
2022-07-26T06:38:13.390Z,998.13
2022-07-26T06:39:18.396Z,998.15
2022-07-26T06:40:13.802Z,998.17
2022-07-26T06:41:13.754Z,998.16
2022-07-26T06:42:13.960Z,998.15
2022-07-26T06:43:13.066Z,998.16
2022-07-26T06:44:13.383Z,998.19
2022-07-26T06:45:13.362Z,998.18
2022-07-26T06:46:13.566Z,998.18
2022-07-26T06:47:13.618Z,998.19
2022-07-26T06:48:13.806Z,998.19
2022-07-26T06:49:14.258Z,998.17
2022-07-26T06:50:13.437Z,998.18
2022-07-26T06:51:13.531Z,998.22
2022-07-26T06:52:13.975Z,998.24
2022-07-26T06:53:13.389Z,998.24
2022-07-26T06:54:13.343Z,998.20
2022-07-26T06:55:13.256Z,998.29
2022-07-26T06:56:13.307Z,998.25
2022-07-26T06:57:13.853Z,998.25
2022-07-26T06:58:13.790Z,998.27
2022-07-26T06:59:13.794Z,998.24
2022-07-26T07:00:14.006Z,998.25
2022-07-26T07:01:13.267Z,998.27
2022-07-26T07:02:13.497Z,998.27
2022-07-26T07:03:13.452Z,998.30
2022-07-26T07:04:13.923Z,998.26
2022-07-26T07:05:13.143Z,998.27
2022-07-26T07:06:13.514Z,998.30
2022-07-26T07:07:13.645Z,998.32
2022-07-26T07:08:13.621Z,998.28
2022-07-26T07:09:13.672Z,998.31
2022-07-26T07:10:12.916Z,998.32
2022-07-26T07:11:14.384Z,998.32
2022-07-26T07:12:14.630Z,998.34
2022-07-26T07:13:14.026Z,998.31
2022-07-26T07:14:12.995Z,998.29
2022-07-26T07:15:12.884Z,998.31
2022-07-26T07:16:13.414Z,998.26
2022-07-26T07:17:20.319Z,998.27
2022-07-26T07:18:13.488Z,998.28
2022-07-26T07:19:13.757Z,998.32
2022-07-26T07:20:14.047Z,998.34
2022-07-26T07:21:13.406Z,998.34
2022-07-26T07:22:13.411Z,998.35
2022-07-26T07:23:13.522Z,998.37
2022-07-26T07:24:13.427Z,998.39
2022-07-26T07:25:14.720Z,998.38
2022-07-26T07:26:12.920Z,998.42
2022-07-26T07:27:13.239Z,998.40
2022-07-26T07:28:14.025Z,998.44
2022-07-26T07:29:12.913Z,998.48
2022-07-26T07:30:12.996Z,998.44
2022-07-26T07:31:13.518Z,998.49
2022-07-26T07:32:18.123Z,998.51
2022-07-26T07:33:22.580Z,998.53
2022-07-26T07:34:14.923Z,998.53
2022-07-26T07:35:13.220Z,998.54
2022-07-26T07:36:13.539Z,998.55
2022-07-26T07:37:13.657Z,998.58
2022-07-26T07:38:14.132Z,998.60
2022-07-26T07:39:17.091Z,998.59
2022-07-26T07:40:13.669Z,998.65
2022-07-26T07:41:13.687Z,998.63
2022-07-26T07:42:13.645Z,998.68
2022-07-26T07:43:13.793Z,998.66
2022-07-26T07:44:14.013Z,998.68
2022-07-26T07:45:13.129Z,998.73
2022-07-26T07:46:13.620Z,998.69
2022-07-26T07:47:13.782Z,998.67
2022-07-26T07:48:14.000Z,998.71
2022-07-26T07:49:13.439Z,998.67
2022-07-26T07:50:13.882Z,998.70
2022-07-26T07:51:12.897Z,998.71
2022-07-26T07:52:12.941Z,998.68
2022-07-26T07:53:12.949Z,998.70
2022-07-26T07:54:12.936Z,998.67
2022-07-26T07:55:36.715Z,998.69
2022-07-26T07:56:13.180Z,998.65
2022-07-26T07:57:13.785Z,998.67
2022-07-26T07:58:13.097Z,998.69
2022-07-26T07:59:13.673Z,998.67
2022-07-26T08:00:13.879Z,998.66
2022-07-26T08:01:13.345Z,998.67
2022-07-26T08:02:13.389Z,998.70
2022-07-26T08:03:13.766Z,998.70
2022-07-26T08:04:14.227Z,998.70
2022-07-26T08:05:14.179Z,998.72
2022-07-26T08:06:13.300Z,998.68
2022-07-26T08:07:13.521Z,998.73
2022-07-26T08:08:12.880Z,998.69
2022-07-26T08:09:13.614Z,998.76
2022-07-26T08:10:13.847Z,998.74
2022-07-26T08:11:14.285Z,998.75
2022-07-26T08:12:13.100Z,998.69
2022-07-26T08:13:13.668Z,998.75
2022-07-26T08:14:13.679Z,998.70
2022-07-26T08:15:13.725Z,998.69
2022-07-26T08:16:14.488Z,998.64
2022-07-26T08:17:13.385Z,998.69
2022-07-26T08:18:15.473Z,998.63
2022-07-26T08:19:15.718Z,998.64
2022-07-26T08:20:15.954Z,998.66
2022-07-26T08:21:13.416Z,998.64
2022-07-26T08:22:14.156Z,998.66
2022-07-26T08:23:13.301Z,998.69
2022-07-26T08:24:13.636Z,998.62
2022-07-26T08:25:13.657Z,998.67
2022-07-26T08:26:13.883Z,998.66
2022-07-26T08:27:13.916Z,998.67
2022-07-26T08:28:30.745Z,998.69
2022-07-26T08:29:14.098Z,998.65
2022-07-26T08:30:13.476Z,998.66
2022-07-26T08:31:13.607Z,998.65
2022-07-26T08:32:13.615Z,998.65
2022-07-26T08:33:13.605Z,998.67
2022-07-26T08:34:14.026Z,998.63
2022-07-26T08:35:17.253Z,998.66
2022-07-26T08:36:13.473Z,998.68
2022-07-26T08:37:17.452Z,998.66
2022-07-26T08:38:13.400Z,998.72
2022-07-26T08:39:13.579Z,998.68
2022-07-26T08:40:13.491Z,998.71
2022-07-26T08:41:13.531Z,998.72
2022-07-26T08:42:13.461Z,998.70
2022-07-26T08:43:13.409Z,998.73
2022-07-26T08:44:13.459Z,998.74
2022-07-26T08:45:13.546Z,998.77
2022-07-26T08:46:14.326Z,998.75
2022-07-26T08:47:13.905Z,998.79
2022-07-26T08:48:17.758Z,998.76
2022-07-26T08:49:14.017Z,998.82
2022-07-26T08:50:13.264Z,998.77
2022-07-26T08:51:13.230Z,998.79
2022-07-26T08:52:13.343Z,998.82
2022-07-26T08:53:13.832Z,998.79
2022-07-26T08:54:14.358Z,998.74
2022-07-26T08:55:13.758Z,998.76
2022-07-26T08:56:13.745Z,998.75
2022-07-26T08:57:13.824Z,998.80
2022-07-26T08:58:13.928Z,998.80
2022-07-26T08:59:18.790Z,998.73
2022-07-26T09:00:13.458Z,998.71
2022-07-26T09:01:13.900Z,998.68
2022-07-26T09:02:13.258Z,998.72
2022-07-26T09:03:13.136Z,998.71
2022-07-26T09:04:13.768Z,998.74
2022-07-26T09:05:13.510Z,998.75
2022-07-26T09:06:13.678Z,998.74
2022-07-26T09:07:14.155Z,998.82
2022-07-26T09:08:13.228Z,998.78
2022-07-26T09:09:13.209Z,998.79
2022-07-26T09:10:13.136Z,998.76
2022-07-26T09:11:13.255Z,998.79
2022-07-26T09:12:13.416Z,998.75
2022-07-26T09:13:13.617Z,998.74
2022-07-26T09:14:13.813Z,998.76
2022-07-26T09:15:13.688Z,998.85
2022-07-26T09:16:13.716Z,998.85
2022-07-26T09:17:14.021Z,998.90
2022-07-26T09:18:13.022Z,998.88
2022-07-26T09:19:13.475Z,998.98
2022-07-26T09:20:13.407Z,998.97
2022-07-26T09:21:13.354Z,998.99
2022-07-26T09:22:13.704Z,999.01
2022-07-26T09:23:13.866Z,998.97
2022-07-26T09:24:13.812Z,999.07
2022-07-26T09:25:13.740Z,999.04
2022-07-26T09:26:13.703Z,999.04
2022-07-26T09:27:15.085Z,999.06
2022-07-26T09:28:13.092Z,999.07
2022-07-26T09:29:13.906Z,999.01
2022-07-26T09:30:13.245Z,999.03
2022-07-26T09:31:13.192Z,999.04
2022-07-26T09:32:15.354Z,999.01
2022-07-26T09:33:13.421Z,999.04
2022-07-26T09:34:13.870Z,999.02
2022-07-26T09:35:45.498Z,999.03
2022-07-26T09:36:14.024Z,999.03
2022-07-26T09:37:13.155Z,999.03
2022-07-26T09:38:13.052Z,999.00
2022-07-26T09:39:13.373Z,999.05
2022-07-26T09:40:13.655Z,999.07
2022-07-26T09:41:13.601Z,999.03
2022-07-26T09:42:27.482Z,999.05
2022-07-26T09:43:15.656Z,999.10
2022-07-26T09:44:13.620Z,999.07
2022-07-26T09:45:13.180Z,999.10
2022-07-26T09:46:13.195Z,999.04
2022-07-26T09:47:13.225Z,999.05
2022-07-26T09:48:13.343Z,999.10
2022-07-26T09:49:13.493Z,999.09
2022-07-26T09:50:14.030Z,999.07
2022-07-26T09:51:13.043Z,999.03
2022-07-26T09:52:13.167Z,999.05
2022-07-26T09:53:13.641Z,999.08
2022-07-26T09:54:14.814Z,999.10
2022-07-26T09:55:13.552Z,999.05
2022-07-26T09:56:13.977Z,999.11
2022-07-26T09:57:13.372Z,999.11
2022-07-26T09:58:13.507Z,999.14
2022-07-26T09:59:13.744Z,999.13
2022-07-26T10:00:13.973Z,999.11
2022-07-26T10:01:13.094Z,999.17
2022-07-26T10:02:13.097Z,999.13
2022-07-26T10:03:13.265Z,999.17
2022-07-26T10:04:13.994Z,999.22
2022-07-26T10:05:13.659Z,999.19
2022-07-26T10:06:13.519Z,999.23
2022-07-26T10:07:14.040Z,999.23
2022-07-26T10:08:13.029Z,999.22
2022-07-26T10:09:13.161Z,999.21
2022-07-26T10:10:13.396Z,999.18
2022-07-26T10:11:13.703Z,999.23
2022-07-26T10:12:13.633Z,999.24
2022-07-26T10:13:13.570Z,999.23
2022-07-26T10:14:13.685Z,999.24
2022-07-26T10:15:13.871Z,999.23
2022-07-26T10:16:13.879Z,999.22
2022-07-26T10:17:13.508Z,999.23
2022-07-26T10:18:16.755Z,999.22
2022-07-26T10:19:13.520Z,999.30
2022-07-26T10:20:17.634Z,999.33
2022-07-26T10:21:13.496Z,999.35
2022-07-26T10:22:13.652Z,999.37
2022-07-26T10:23:13.775Z,999.32
2022-07-26T10:24:14.058Z,999.33
2022-07-26T10:25:13.392Z,999.32
2022-07-26T10:26:13.409Z,999.35
2022-07-26T10:27:13.938Z,999.33
2022-07-26T10:28:12.862Z,999.35
2022-07-26T10:29:14.260Z,999.29
2022-07-26T10:30:13.268Z,999.31
2022-07-26T10:31:15.403Z,999.28
2022-07-26T10:32:13.882Z,999.28
2022-07-26T10:33:13.367Z,999.32
2022-07-26T10:34:13.894Z,999.34
2022-07-26T10:35:13.719Z,999.34
2022-07-26T10:36:14.009Z,999.31
2022-07-26T10:37:13.362Z,999.32
2022-07-26T10:38:13.610Z,999.35
2022-07-26T10:39:13.864Z,999.30
2022-07-26T10:40:14.566Z,999.32
2022-07-26T10:41:13.627Z,999.33
2022-07-26T10:42:13.728Z,999.36
2022-07-26T10:43:37.796Z,999.39
2022-07-26T10:44:14.588Z,999.32
2022-07-26T10:45:13.658Z,999.28
2022-07-26T10:46:13.646Z,999.29
2022-07-26T10:47:13.625Z,999.24
2022-07-26T10:48:13.591Z,999.27
2022-07-26T10:49:13.555Z,999.31
2022-07-26T10:50:14.053Z,999.39
2022-07-26T10:51:13.231Z,999.42
2022-07-26T10:52:13.450Z,999.41
2022-07-26T10:53:13.865Z,999.54
2022-07-26T10:54:15.081Z,999.57
2022-07-26T10:55:14.662Z,999.65
2022-07-26T10:56:14.259Z,999.65
2022-07-26T10:57:13.703Z,999.61
2022-07-26T10:58:13.920Z,999.69
2022-07-26T10:59:12.977Z,999.74
2022-07-26T11:00:12.924Z,999.74
2022-07-26T11:01:13.093Z,999.70
2022-07-26T11:02:13.371Z,999.74
2022-07-26T11:03:15.021Z,999.72
2022-07-26T11:04:13.670Z,999.74
2022-07-26T11:05:13.150Z,999.81
2022-07-26T11:06:13.609Z,999.77
2022-07-26T11:07:13.855Z,999.77
2022-07-26T11:08:13.760Z,999.86
2022-07-26T11:09:13.951Z,999.85
2022-07-26T11:10:13.180Z,999.79
2022-07-26T11:11:13.639Z,999.80
2022-07-26T11:12:14.712Z,999.85
2022-07-26T11:13:13.752Z,999.87
2022-07-26T11:14:14.458Z,999.86
2022-07-26T11:15:13.982Z,999.86
2022-07-26T11:16:22.783Z,999.89
2022-07-26T11:17:13.961Z,999.86
2022-07-26T11:18:13.384Z,999.86
2022-07-26T11:19:13.244Z,999.84
2022-07-26T11:20:13.433Z,999.77
2022-07-26T11:21:13.318Z,999.83
2022-07-26T11:22:14.898Z,999.85
2022-07-26T11:23:13.077Z,999.82
2022-07-26T11:24:13.577Z,999.86
2022-07-26T11:25:13.816Z,999.84
2022-07-26T11:26:13.799Z,999.86
2022-07-26T11:27:14.136Z,999.86
2022-07-26T11:28:13.440Z,999.81
2022-07-26T11:29:16.959Z,999.88
2022-07-26T11:30:13.744Z,999.91
2022-07-26T11:31:15.314Z,999.90
2022-07-26T11:32:17.889Z,999.99
2022-07-26T11:33:13.216Z,999.87
2022-07-26T11:34:13.604Z,999.96
2022-07-26T11:35:13.178Z,999.96
2022-07-26T11:36:13.735Z,999.97
2022-07-26T11:37:13.570Z,1000.00
2022-07-26T11:38:14.039Z,999.94
2022-07-26T11:39:13.120Z,999.93
2022-07-26T11:40:13.317Z,999.91
2022-07-26T11:41:14.428Z,999.94
2022-07-26T11:42:13.654Z,1000.03
2022-07-26T11:43:13.719Z,999.92
2022-07-26T11:44:14.073Z,999.95
2022-07-26T11:45:13.803Z,1000.00
2022-07-26T11:46:14.052Z,999.98
2022-07-26T11:47:13.187Z,999.96
2022-07-26T11:48:13.171Z,1000.00
2022-07-26T11:49:13.576Z,1000.02
2022-07-26T11:50:18.630Z,999.97
2022-07-26T11:51:13.501Z,999.99
2022-07-26T11:52:13.789Z,1000.07
2022-07-26T11:53:13.768Z,1000.06
2022-07-26T11:54:14.017Z,1000.07
2022-07-26T11:55:13.599Z,1000.12
2022-07-26T11:56:13.631Z,1000.12
2022-07-26T11:57:13.544Z,1000.12
2022-07-26T11:58:13.519Z,1000.14
2022-07-26T11:59:15.271Z,1000.15
2022-07-26T12:00:13.447Z,1000.11
2022-07-26T12:01:13.683Z,1000.20
2022-07-26T12:02:20.268Z,1000.18
2022-07-26T12:03:13.439Z,1000.24
2022-07-26T12:04:14.145Z,1000.19
2022-07-26T12:05:14.018Z,1000.23
2022-07-26T12:06:13.171Z,1000.20
2022-07-26T12:07:13.247Z,1000.20
2022-07-26T12:08:13.293Z,1000.24
2022-07-26T12:09:13.416Z,1000.31
2022-07-26T12:10:13.370Z,1000.39
2022-07-26T12:11:13.729Z,1000.32
2022-07-26T12:12:13.587Z,1000.40
2022-07-26T12:13:13.943Z,1000.39
2022-07-26T12:14:18.335Z,1000.37
2022-07-26T12:15:13.679Z,1000.42
2022-07-26T12:16:14.101Z,1000.36
2022-07-26T12:17:14.389Z,1000.40
2022-07-26T12:18:13.615Z,1000.37
2022-07-26T12:19:13.700Z,1000.39
2022-07-26T12:20:13.780Z,1000.39
2022-07-26T12:21:13.598Z,1000.37
2022-07-26T12:22:15.448Z,1000.36
2022-07-26T12:23:13.533Z,1000.36
2022-07-26T12:24:14.009Z,1000.40
2022-07-26T12:25:13.317Z,1000.38
2022-07-26T12:26:13.418Z,1000.37
2022-07-26T12:27:13.999Z,1000.34